Погода Сельцо-Карельскоена 2 недели

Тверская область, Россия

21 мая-03 июня
  • 21мая
    Сегодня
    +6°
    +22°
    Ясно и безоблачно
    ВремяПогодаТемператураВлажностьДавлениеВетер, м/сВероятность осадков
    00:00Ясно и безоблачно+12°C89 %749 мм0.4 м/с2 %
    03:00Практически безоблачно+10°C77 %750 мм0.6 м/с2 %
    06:00Практически безоблачно+10°C68 %751 мм0.9 м/с2 %
    09:00Ясно и безоблачно+16°C68 %752 мм1.3 м/с2 %
    12:00Ясно и безоблачно+21°C46 %752 мм2.3 м/с2 %
    15:00Ясно и безоблачно+22°C34 %752 мм2.6 м/с2 %
    18:00Ясно и безоблачно+21°C34 %752 мм2.2 м/с2 %
    21:00Ясно и безоблачно+15°C53 %752 мм0.8 м/с2 %
  • 22мая
    Среда
    +6°
    +21°
    Ясно и безоблачно
    ВремяПогодаТемператураВлажностьДавлениеВетер, м/сВероятность осадков
    00:00Ясно и безоблачно+10°C72 %753 мм0.8 м/с2 %
    03:00Ясно и безоблачно+7°C81 %754 мм0.7 м/с2 %
    06:00Ясно и безоблачно+8°C73 %755 мм0.8 м/с2 %
    09:00Ясно и безоблачно+15°C57 %756 мм1.5 м/с2 %
    12:00Ясно и безоблачно+20°C41 %756 мм2.4 м/с2 %
    15:00Ясно и безоблачно+20°C35 %755 мм2.4 м/с2 %
    18:00Ясно и безоблачно+20°C38 %755 мм2.1 м/с2 %
    21:00Ясно и безоблачно+14°C60 %756 мм0.8 м/с2 %
  • 23мая
    Четверг
    +6°
    +21°
    Практически безоблачно
    ВремяПогодаТемператураВлажностьДавлениеВетер, м/сВероятность осадков
    00:00Ясно и безоблачно+10°C61 %757 мм1.1 м/с2 %
    03:00Ясно и безоблачно+7°C73 %757 мм0.7 м/с2 %
    06:00Ясно и безоблачно+7°C68 %758 мм1.0 м/с2 %
    09:00Ясно и безоблачно+15°C52 %760 мм1.9 м/с2 %
    12:00Небольшая облачность+19°C39 %760 мм2.7 м/с2 %
    15:00Практически безоблачно+20°C36 %759 мм2.3 м/с2 %
    18:00Ясно и безоблачно+20°C35 %759 мм1.7 м/с2 %
    21:00Ясно и безоблачно+14°C70 %759 мм0.6 м/с2 %
  • 24мая
    Пятница
    +9°
    +22°
    Ясно и безоблачно
    ВремяПогодаТемператураВлажностьДавлениеВетер, м/сВероятность осадков
    00:00Ясно и безоблачно+10°C65 %760 мм0.8 м/с2 %
    03:00Ясно и безоблачно+7°C78 %761 мм0.5 м/с2 %
    06:00Ясно и безоблачно+8°C71 %761 мм0.7 м/с2 %
    09:00Практически безоблачно+17°C44 %762 мм1.4 м/с2 %
    12:00Ясно и безоблачно+20°C39 %762 мм2.3 м/с2 %
    15:00Ясно и безоблачно+21°C36 %761 мм2.3 м/с2 %
    18:00Ясно и безоблачно+22°C39 %760 мм1.9 м/с2 %
    21:00Ясно и безоблачно+16°C57 %760 мм0.9 м/с2 %
  • 25мая
    Суббота
    +11°
    +25°
    Облачно с прояснениями
    ВремяПогодаТемператураВлажностьДавлениеВетер, м/сВероятность осадков
    00:00Ясно и безоблачно+12°C70 %760 мм1.2 м/с2 %
    03:00Ясно и безоблачно+10°C71 %760 мм1.0 м/с2 %
    06:00Ясно и безоблачно+10°C73 %760 мм1.2 м/с2 %
    09:00Ясно и безоблачно+18°C55 %760 мм2.1 м/с2 %
    12:00Облачно с прояснениями+23°C42 %759 мм2.8 м/с4 %
    15:00Облачно с прояснениями+24°C36 %758 мм3.0 м/с10 %
    18:00Ясно и безоблачно+24°C38 %757 мм2.4 м/с11 %
    21:00Ясно и безоблачно+18°C60 %757 мм0.8 м/с4 %
Мы используем cookies
Соглашаюсь